Home > Products > Valid Products > TAF

000
FTUS44 KJAN 301533 AAB
TAFJAN
TAF AMD
KJAN 301533Z 3016/0112 30011G22KT 1SM +TSRA BR BKN011CB OVC028
     FM301700 26015G25KT P6SM TSRA BKN050CB
     FM302200 25010KT P6SM VCSH BKN060
     FM010200 21004KT P6SM FEW250=



000
FTUS44 KJAN 301349 AAA
TAFMEI
TAF AMD
KMEI 301349Z 3014/0112 VRB04KT 1SM TSRA BR BKN020 BKN035CB OVC050
     FM301500 25015G21KT P6SM TSRA SCT025 OVC040CB
     FM301800 22013KT P6SM -TSRA BKN050CB
     FM302300 25007KT P6SM SCT060 BKN250=



000
FTUS44 KJAN 301140
TAFGLH
TAF
KGLH 301140Z 3012/0112 27015G25KT P6SM TSRA SCT025 BKN035CB
     FM301500 27012KT P6SM -SHRA VCTS BKN050CB OVC100
     FM302300 26010KT P6SM SCT050=



000
FTUS44 KJAN 301140
TAFJAN
TAF
KJAN 301140Z 3012/0112 19005KT P6SM SCT040 BKN120
     FM301400 25009KT P6SM VCTS SCT020 BKN040CB
     FM301700 26015G25KT P6SM TSRA BKN050CB
     FM302200 25010KT P6SM VCSH BKN060
     FM010200 21004KT P6SM FEW250=



000
FTUS44 KJAN 301140
TAFHBG
TAF
KHBG 301140Z 3012/0112 22005KT P6SM SCT025 BKN040
     FM301400 26009KT P6SM VCSH SCT025 BKN050
     FM301800 25016G25KT P6SM TSRA BKN050CB
     FM302300 26006KT P6SM VCSH SCT060 OVC250=



000
FTUS44 KJAN 301140
TAFJAN
TAF
KJAN 301140Z 3012/0112 19005KT P6SM SCT040 BKN120
     FM301400 25009KT P6SM VCTS SCT020 BKN040CB
     FM301700 26015G25KT P6SM TSRA BKN050CB
     FM302200 25010KT P6SM VCSH BKN060
     FM010200 21004KT P6SM FEW250=



000
FTUS44 KJAN 301140
TAFGWO
TAF
KGWO 301140Z 3012/0112 27010KT P6SM -TSRA BKN035CB
     FM301500 27012KT P6SM -SHRA VCTS BKN050CB OVC100
     FM302300 26010KT P6SM SCT050=



000
FTUS44 KJAN 301140
TAFHBG
TAF
KHBG 301140Z 3012/0112 22005KT P6SM SCT025 BKN040
     FM301400 26009KT P6SM VCSH SCT025 BKN050
     FM301800 25016G25KT P6SM TSRA BKN050CB
     FM302300 26006KT P6SM VCSH SCT060 OVC250=



000
FTUS44 KJAN 301140
TAFGLH
TAF
KGLH 301140Z 3012/0112 27015G25KT P6SM TSRA SCT025 BKN035CB
     FM301500 27012KT P6SM -SHRA VCTS BKN050CB OVC100
     FM302300 26010KT P6SM SCT050=



000
FTUS44 KJAN 301140
TAFMEI
TAF
KMEI 301140Z 3012/0112 22008KT P6SM VCTS SCT020 BKN040CB
     FM301500 25015G21KT P6SM TSRA SCT025 OVC040CB
     FM301800 22013KT P6SM -TSRA BKN050CB
     FM302300 25007KT P6SM SCT060 BKN250=



000
FTUS44 KJAN 301140
TAFMEI
TAF
KMEI 301140Z 3012/0112 22008KT P6SM VCTS SCT020 BKN040CB
     FM301500 25015G21KT P6SM TSRA SCT025 OVC040CB
     FM301800 22013KT P6SM -TSRA BKN050CB
     FM302300 25007KT P6SM SCT060 BKN250=



000
FTUS44 KJAN 301140
TAFGWO
TAF
KGWO 301140Z 3012/0112 27010KT P6SM -TSRA BKN035CB
     FM301500 27012KT P6SM -SHRA VCTS BKN050CB OVC100
     FM302300 26010KT P6SM SCT050=



000
FTUS44 KJAN 300539
TAFHBG
TAF
KHBG 300539Z 3006/0106 19005KT P6SM BKN250
     FM301100 22004KT 5SM BR SCT009 BKN030
     FM301400 26009KT P6SM VCTS SCT020 BKN040CB
     FM302000 25016G25KT P6SM TSRA BKN050CB
     FM302300 26006KT P6SM VCSH SCT060 OVC250=



000
FTUS44 KJAN 300539
TAFJAN
TAF
KJAN 300539Z 3006/0106 19005KT P6SM BKN250
     FM301400 25009KT P6SM VCTS SCT020 BKN040CB
     FM301900 26015G25KT P6SM TSRA BKN050CB
     FM302300 25010KT P6SM VCSH BKN060
     FM010200 21004KT P6SM FEW250=



000
FTUS44 KJAN 300539
TAFMEI
TAF
KMEI 300539Z 3006/0106 21005KT P6SM FEW060
     FM301100 20004KT 5SM BR FEW010 SCT030
     FM301430 25009KT P6SM VCTS SCT020 BKN040CB
     FM302100 25015G21KT P6SM TSRA OVC050CB
     FM302300 25007KT P6SM SCT060 BKN250=



000
FTUS44 KJAN 300539
TAFGWO
TAF
KGWO 300539Z 3006/0106 22005KT P6SM FEW060 SCT250
     FM300900 21006KT P6SM VCTS SCT030 BKN040CB
     FM301200 27015G25KT P6SM TSRA BKN035CB
     FM301500 27012KT P6SM VCSH BKN060 OVC100
     FM302300 26010KT P6SM SCT050=



000
FTUS44 KJAN 300539
TAFGLH
TAF
KGLH 300539Z 3006/0106 23008KT P6SM FEW060 SCT250
     FM300800 23008KT P6SM VCTS SCT030 BKN050CB
     FM301200 27015G25KT P6SM TSRA BKN035CB
     FM301500 27012KT P6SM VCSH BKN060 OVC100
     FM302300 26010KT P6SM SCT050=



000
FTUS44 KJAN 292321
TAFJAN
TAF
KJAN 292321Z 3000/3024 25003KT P6SM SCT060 SCT100
     FM301400 25009KT P6SM VCTS SCT020 BKN040CB
     FM302300 25010KT P6SM OVC050=



000
FTUS44 KJAN 292321
TAFGLH
TAF
KGLH 292321Z 3000/3024 24008KT P6SM SKC
     FM300900 23008KT P6SM VCTS SCT030 BKN050CB
     FM301600 27009KT P6SM VCTS SCT040 BKN060CB
     FM302300 26010KT P6SM SCT050=



000
FTUS44 KJAN 292321
TAFMEI
TAF
KMEI 292321Z 3000/3024 23009KT P6SM FEW060
     FM301100 20004KT 5SM BR FEW010 SCT030
     FM301430 25009KT P6SM VCTS SCT020 BKN040CB
     FM302300 25010KT P6SM OVC050=



000
FTUS44 KJAN 292321
TAFGWO
TAF
KGWO 292321Z 3000/3024 22008KT P6SM SKC
     FM301000 21006KT P6SM VCTS SCT030 BKN040CB
     FM301630 26008KT P6SM VCTS SCT030 BKN050CB
     FM302300 26010KT P6SM SCT050=



000
FTUS44 KJAN 292321
TAFHBG
TAF
KHBG 292321Z 3000/3024 24006KT P6SM SKC
     FM301100 22004KT 5SM BR SCT009 BKN030
     FM301400 26009KT P6SM VCTS SCT020 BKN040CB=



000
FTUS44 KJAN 291744
TAFGWO
TAF
KGWO 291744Z 2918/3018 23007KT P6SM SCT040
     FM301000 21006KT P6SM VCTS SCT030 BKN040CB
     FM301630 26008KT P6SM VCTS SCT030 BKN050CB=



000
FTUS44 KJAN 291744
TAFJAN
TAF
KJAN 291744Z 2918/3018 25009KT P6SM FEW040 SCT060
     FM300000 19006KT P6SM FEW050
     FM301400 25009KT P6SM VCTS SCT020 BKN040CB=



000
FTUS44 KJAN 291744
TAFHBG
TAF
KHBG 291744Z 2918/3018 24006KT P6SM VCTS SCT025 BKN040CB BKN080
     FM292300 21006KT P6SM SCT050 BKN150 BKN250
     FM301100 22004KT 5SM BR SCT009 BKN030
     FM301400 26009KT P6SM VCTS SCT020 BKN040CB=



000
FTUS44 KJAN 291744
TAFGLH
TAF
KGLH 291744Z 2918/3018 23010KT P6SM SCT050
     FM300900 23008KT P6SM VCTS SCT030 BKN050CB
     FM301600 27009KT P6SM VCTS SCT040 BKN060CB=



000
FTUS44 KJAN 291744
TAFMEI
TAF
KMEI 291744Z 2918/3018 24010KT P6SM FEW050 SCT070
     FM300000 20005KT P6SM FEW050
     FM301100 20004KT 5SM BR FEW010 SCT030
     FM301430 25009KT P6SM VCTS SCT020 BKN040CB=



000
FTUS44 KJAN 291744
TAFJAN
TAF
KJAN 291744Z 2918/3018 25009KT P6SM FEW040 SCT060
     FM300000 19006KT P6SM FEW050
     FM301400 25009KT P6SM VCTS SCT020 BKN040CB=



000
FTUS44 KJAN 291744
TAFMEI
TAF
KMEI 291744Z 2918/3018 24010KT P6SM FEW050 SCT070
     FM300000 20005KT P6SM FEW050
     FM301100 20004KT 5SM BR FEW010 SCT030
     FM301430 25009KT P6SM VCTS SCT020 BKN040CB=



000
FTUS44 KJAN 291744
TAFGWO
TAF
KGWO 291744Z 2918/3018 23007KT P6SM SCT040
     FM301000 21006KT P6SM VCTS SCT030 BKN040CB
     FM301630 26008KT P6SM VCTS SCT030 BKN050CB=



000
FTUS44 KJAN 291744
TAFGLH
TAF
KGLH 291744Z 2918/3018 23010KT P6SM SCT050
     FM300900 23008KT P6SM VCTS SCT030 BKN050CB
     FM301600 27009KT P6SM VCTS SCT040 BKN060CB=



000
FTUS44 KJAN 291744
TAFHBG
TAF
KHBG 291744Z 2918/3018 24006KT P6SM VCTS SCT025 BKN040CB BKN080
     FM292300 21006KT P6SM SCT050 BKN150 BKN250
     FM301100 22004KT 5SM BR SCT009 BKN030
     FM301400 26009KT P6SM VCTS SCT020 BKN040CB=



000
FTUS44 KJAN 291603 AAA
TAFHBG
TAF AMD
KHBG 291603Z 2916/3012 24006KT P6SM VCTS BKN029 BKN040CB OVC090
     FM292300 21006KT P6SM SCT050 BKN150 BKN250=



000
FTUS44 KJAN 291603 AAA
TAFHBG
TAF AMD
KHBG 291603Z 2916/3012 24006KT P6SM VCTS BKN029 BKN040CB OVC090
     FM292300 21006KT P6SM SCT050 BKN150 BKN250=



000
FTUS44 KJAN 291120
TAFGLH
TAF
KGLH 291120Z 2912/3012 23010KT P6SM SKC
     FM300900 23008KT P6SM VCTS BKN050CB=



000
FTUS44 KJAN 291120
TAFHBG
TAF
KHBG 291120Z 2912/3012 00000KT 5SM BR BKN007
     FM291400 25006KT P6SM SCT020
     FM292000 26008KT P6SM VCTS SCT050CB
     FM300200 21006KT P6SM SCT250=



000
FTUS44 KJAN 291120
TAFGWO
TAF
KGWO 291120Z 2912/3012 22008KT P6SM SKC
     FM300900 21006KT P6SM VCTS BKN050CB=



000
FTUS44 KJAN 291120
TAFMEI
TAF
KMEI 291120Z 2912/3012 26007KT P6SM SKC=



000
FTUS44 KJAN 291120
TAFJAN
TAF
KJAN 291120Z 2912/3012 22007KT P6SM SKC=



000
FTUS44 KJAN 290540
TAFJAN
TAF
KJAN 290540Z 2906/3006 00000KT P6SM FEW250
     FM291500 25007KT P6SM SKC=



000
FTUS44 KJAN 290540
TAFGLH
TAF
KGLH 290540Z 2906/3006 19005KT P6SM SKC
     FM291500 24010KT P6SM SKC=



000
FTUS44 KJAN 290540
TAFGWO
TAF
KGWO 290540Z 2906/3006 VRB03KT P6SM SKC
     FM291600 23008KT P6SM SKC=



000
FTUS44 KJAN 290540
TAFMEI
TAF
KMEI 290540Z 2906/3006 00000KT P6SM FEW250
     FM291500 26007KT P6SM SKC=



000
FTUS44 KJAN 290540
TAFJAN
TAF
KJAN 290540Z 2906/3006 00000KT P6SM FEW250
     FM291500 25007KT P6SM SKC=



000
FTUS44 KJAN 290540
TAFHBG
TAF
KHBG 290540Z 2906/3006 00000KT P6SM SCT250
     FM290900 00000KT 5SM BR BKN007
     FM291400 25006KT P6SM SCT020
     FM292000 26008KT P6SM VCTS SCT050CB
     FM300200 21006KT P6SM SCT250=



000
FTUS44 KJAN 282340
TAFGWO
TAF
KGWO 282340Z 2900/2924 VRB03KT P6SM SCT060=



000
FTUS44 KJAN 282340
TAFJAN
TAF
KJAN 282340Z 2900/2924 VRB03KT P6SM SCT060=



000
FTUS44 KJAN 282340
TAFHBG
TAF
KHBG 282340Z 2900/2924 VRB04KT P6SM SCT060=



000
FTUS44 KJAN 282340
TAFMEI
TAF
KMEI 282340Z 2900/2924 VRB03KT P6SM SCT060=



000
FTUS44 KJAN 282340
TAFGLH
TAF
KGLH 282340Z 2900/2924 22005KT P6SM SCT060=



000
FTUS44 KJAN 281720
TAFGLH
TAF
KGLH 281720Z 2818/2918 30005KT P6SM FEW040=



000
FTUS44 KJAN 281720
TAFJAN
TAF
KJAN 281720Z 2818/2918 01005KT P6SM FEW040=



000
FTUS44 KJAN 281720
TAFGWO
TAF
KGWO 281720Z 2818/2918 30005KT P6SM FEW040=



000
FTUS44 KJAN 281720
TAFHBG
TAF
KHBG 281720Z 2818/2918 02005KT P6SM SCT030=



000
FTUS44 KJAN 281720
TAFMEI
TAF
KMEI 281720Z 2818/2918 36005KT P6SM FEW040=



000
FTUS44 KJAN 281546 AAB
TAFHBG
TAF AMD
KHBG 281546Z 2816/2912 32003KT P6SM SCT016
     FM281800 34006KT P6SM FEW040 SCT250=



000
FTUS44 KJAN 281546 AAB
TAFHBG
TAF AMD
KHBG 281546Z 2816/2912 32003KT P6SM SCT016
     FM281800 34006KT P6SM FEW040 SCT250=



000
FTUS44 KJAN 281253 AAA
TAFGWO
TAF AMD
KGWO 281253Z 2813/2912 33006KT P6SM SKC=



000
FTUS44 KJAN 281253 AAA
TAFHBG
TAF AMD
KHBG 281253Z 2813/2912 32003KT P6SM SCT045 BKN060 OVC090
     FM281400 34004KT P6SM BKN035
     FM281600 33007KT P6SM SCT050=



000
FTUS44 KJAN 281140
TAFGLH
TAF
KGLH 281140Z 2812/2912 33005KT P6SM SKC=



000
FTUS44 KJAN 281140
TAFGWO
TAF
KGWO 281140Z 2812/2912 00000KT 4SM BR SKC
     FM281330 33006KT P6SM SKC=



000
FTUS44 KJAN 281140
TAFJAN
TAF
KJAN 281140Z 2812/2912 34007KT P6SM SKC=



000
FTUS44 KJAN 281140
TAFHBG
TAF
KHBG 281140Z 2812/2912 33004KT P6SM -RA BKN040 OVC100
     FM281300 34003KT P6SM BKN035
     FM281600 33007KT P6SM SCT050=



000
FTUS44 KJAN 281140
TAFMEI
TAF
KMEI 281140Z 2812/2912 35007KT P6SM SKC=



000
FTUS44 KJAN 281031 AAA
TAFMEI
TAF AMD
KMEI 281031Z 2811/2906 34003KT P6SM BKN050
     FM281400 36007KT P6SM SKC=



000
FTUS44 KJAN 281031 AAA
TAFMEI
TAF AMD
KMEI 281031Z 2811/2906 34003KT P6SM BKN050
     FM281400 36007KT P6SM SKC=



000
FTUS44 KJAN 280909 AAC
TAFGWO
TAF AMD
KGWO 280909Z 2809/2906 00000KT 3SM BR FEW002
     FM281400 32006KT P6SM SKC=



000
FTUS44 KJAN 280909 AAC
TAFGWO
TAF AMD
KGWO 280909Z 2809/2906 00000KT 3SM BR FEW002
     FM281400 32006KT P6SM SKC=



000
FTUS44 KJAN 280721 AAB
TAFGWO
TAF AMD
KGWO 280721Z 2807/2906 00000KT 1SM BR OVC002
     FM281400 32006KT P6SM SKC=



000
FTUS44 KJAN 280634 AAA
TAFGWO
TAF AMD
KGWO 280634Z 2807/2906 00000KT 2SM BR SKC
     FM281400 32006KT P6SM SKC=



000
FTUS44 KJAN 280634 AAA
TAFGWO
TAF AMD
KGWO 280634Z 2807/2906 00000KT 2SM BR SKC
     FM281400 32006KT P6SM SKC=



000
FTUS44 KJAN 280541
TAFGWO
TAF
KGWO 280541Z 2806/2906 01004KT P6SM SKC=



000
FTUS44 KJAN 280541
TAFGLH
TAF
KGLH 280541Z 2806/2906 34005KT P6SM SKC=



000
FTUS44 KJAN 280541
TAFGLH
TAF
KGLH 280541Z 2806/2906 34005KT P6SM SKC=



000
FTUS44 KJAN 280541
TAFMEI
TAF
KMEI 280541Z 2806/2906 00000KT P6SM FEW020 BKN040
     FM281000 34003KT 4SM BR BKN015 OVC030
     FM281300 36007KT P6SM SKC=



000
FTUS44 KJAN 280541
TAFJAN
TAF
KJAN 280541Z 2806/2906 00000KT P6SM SCT100
     FM281400 33007KT P6SM SKC=



000
FTUS44 KJAN 280541
TAFHBG
TAF
KHBG 280541Z 2806/2906 00000KT P6SM BKN040
     FM280730 32003KT 5SM -SHRA BKN030
     FM281100 34003KT 6SM BR BKN030
     FM281600 33007KT P6SM SCT050=



000
FTUS44 KJAN 272333
TAFMEI
TAF
KMEI 272333Z 2800/2824 34008KT P6SM VCTS SCT030CB BKN050
     FM280200 VRB03KT P6SM SCT025 BKN040
     FM280900 VRB03KT 4SM BR BKN007 BKN015
     FM281400 36005KT P6SM SCT050=



000
FTUS44 KJAN 272333
TAFGWO
TAF
KGWO 272333Z 2800/2824 36005KT P6SM SCT050=



000
FTUS44 KJAN 272333
TAFGLH
TAF
KGLH 272333Z 2800/2824 36008KT P6SM SCT050=



000
FTUS44 KJAN 272333
TAFJAN
TAF
KJAN 272333Z 2800/2824 35004KT P6SM SCT035 SCT050
      TEMPO 2808/2812 5SM BR=



000
FTUS44 KJAN 272333
TAFHBG
TAF
KHBG 272333Z 2800/2824 18006KT P6SM -TSRA BKN030CB BKN050
     FM280200 33004KT 6SM BR VCSH SCT035 SCT050
     FM280900 32003KT 4SM BR BKN005 BKN010
     FM281400 35005KT P6SM BKN015
     FM281700 32006KT P6SM SCT050=



000
FTUS44 KJAN 272333
TAFJAN
TAF
KJAN 272333Z 2800/2824 35004KT P6SM SCT035 SCT050
      TEMPO 2808/2812 5SM BR=



000
FTUS44 KJAN 272333
TAFHBG
TAF
KHBG 272333Z 2800/2824 18006KT P6SM -TSRA BKN030CB BKN050
     FM280200 33004KT 6SM BR VCSH SCT035 SCT050
     FM280900 32003KT 4SM BR BKN005 BKN010
     FM281400 35005KT P6SM BKN015
     FM281700 32006KT P6SM SCT050=



000
FTUS44 KJAN 272333
TAFGLH
TAF
KGLH 272333Z 2800/2824 36008KT P6SM SCT050=



000
FTUS44 KJAN 272333
TAFGWO
TAF
KGWO 272333Z 2800/2824 36005KT P6SM SCT050=



000
FTUS44 KJAN 272333
TAFMEI
TAF
KMEI 272333Z 2800/2824 34008KT P6SM VCTS SCT030CB BKN050
     FM280200 VRB03KT P6SM SCT025 BKN040
     FM280900 VRB03KT 4SM BR BKN007 BKN015
     FM281400 36005KT P6SM SCT050=



000
FTUS44 KJAN 271953 AAB
TAFHBG
TAF AMD
KHBG 271953Z 2720/2818 27008KT P6SM VCTS SCT035CB BKN120
     FM272030 28015G23KT 2SM +TSRA BR SCT015 BKN025CB OVC060
     FM272130 27010KT P6SM VCTS SCT035CB OVC100
     FM280000 28007KT P6SM SCT025 BKN030
     FM281000 32003KT 5SM BR SCT007 BKN012
     FM281400 35004KT P6SM BKN015=



000
FTUS44 KJAN 271930 AAA
TAFGLH
TAF AMD
KGLH 271930Z 2720/2818 33007KT P6SM BKN015 BKN030
     FM272100 34010KT P6SM SCT030 BKN050
     FM280000 36005KT P6SM SKC=



000
FTUS44 KJAN 271930 AAA
TAFGLH
TAF AMD
KGLH 271930Z 2720/2818 33007KT P6SM BKN015 BKN030
     FM272100 34010KT P6SM SCT030 BKN050
     FM280000 36005KT P6SM SKC=



000
FTUS44 KJAN 271929 AAA
TAFGWO
TAF AMD
KGWO 271929Z 2719/2818 31007KT P6SM SCT015 OVC045
     FM272100 33008KT P6SM SCT030 BKN050
     FM280000 36004KT P6SM SKC=



000
FTUS44 KJAN 271928 AAC
TAFJAN
TAF AMD
KJAN 271928Z 2719/2818 29007KT P6SM SCT025 OVC035
     FM280000 31005KT P6SM SCT035 BKN050
     FM280300 36003KT P6SM SKC=



000
FTUS44 KJAN 271851 AAB
TAFJAN
TAF AMD
KJAN 271851Z 2719/2818 29007KT P6SM SCT020 OVC030
     FM280000 31005KT P6SM SCT035 BKN050
     FM280300 36003KT P6SM SKC=



000
FTUS44 KJAN 271851 AAB
TAFJAN
TAF AMD
KJAN 271851Z 2719/2818 29007KT P6SM SCT020 OVC030
     FM280000 31005KT P6SM SCT035 BKN050
     FM280300 36003KT P6SM SKC=



000
FTUS44 KJAN 271808 AAA
TAFHBG
TAF AMD
KHBG 271808Z 2718/2818 27008KT P6SM -RA SCT045 BKN090
     FM271830 27010KT P6SM VCTS SCT030CB BKN040
     FM280000 28007KT P6SM SCT025 BKN030
     FM281000 32003KT 5SM BR SCT007 BKN012
     FM281400 35004KT P6SM BKN015=



000
FTUS44 KJAN 271806 AAA
TAFJAN
TAF AMD
KJAN 271806Z 2718/2818 28007KT P6SM SCT020 BKN030
     FM280000 31005KT P6SM SCT035 BKN050
     FM280300 36003KT P6SM SKC=



000
FTUS44 KJAN 271744
TAFGLH
TAF
KGLH 271744Z 2718/2818 33007KT P6SM SCT015 OVC035
     FM272100 34010KT P6SM SCT030 BKN050
     FM280000 36005KT P6SM SKC=



000
FTUS44 KJAN 271742
TAFHBG
TAF
KHBG 271742Z 2718/2818 27008KT 3SM -TSRA BR SCT045CB BKN070 OVC110
     FM271930 27010KT P6SM VCTS SCT030CB BKN040
     FM280000 28007KT P6SM SCT025 BKN030
     FM281000 32003KT 5SM BR SCT007 BKN012
     FM281400 35004KT P6SM BKN015=



000
FTUS44 KJAN 271729 AAA
TAFHBG
TAF AMD
KHBG 271729Z 2717/2818 27008KT 1SM +TSRA BR SCT035CB BKN070 OVC100
     FM272000 27010KT P6SM VCTS SCT030CB BKN040
     FM280000 28007KT P6SM SCT025 BKN030
     FM281000 32003KT 5SM BR SCT007 BKN012
     FM281400 35004KT P6SM BKN015=



000
FTUS44 KJAN 271722
TAFGWO
TAF
KGWO 271722Z 2718/2818 31007KT P6SM SCT012 BKN018 OVC030
     FM272100 33008KT P6SM SCT030 BKN050
     FM280000 36004KT P6SM SKC=



000
FTUS44 KJAN 271722
TAFMEI
TAF
KMEI 271722Z 2718/2818 28006KT P6SM VCSH SCT020 BKN035
     FM272200 28006KT P6SM SCT015 BKN025
     FM280200 31004KT P6SM SCT030 BKN040
     FM280900 34003KT 4SM BR BKN007
     FM281400 02003KT P6SM SKC=



000
FTUS44 KJAN 271722
TAFJAN
TAF
KJAN 271722Z 2718/2818 28007KT P6SM VCSH SCT018 BKN030
     FM272200 30007KT P6SM SCT020 BKN030
     FM280000 31005KT P6SM SCT035 BKN050
     FM280300 36003KT P6SM SKC=



000
FTUS44 KJAN 271722
TAFHBG
TAF
KHBG 271722Z 2718/2818 27007KT 3SM +RA BR VCTS SCT030CB BKN040
      OVC070
     FM272000 27010KT P6SM VCTS SCT030CB BKN040
     FM280000 28007KT P6SM SCT025 BKN030
     FM281000 32003KT 5SM BR SCT007 BKN012
     FM281400 35004KT P6SM BKN015=



000
FTUS44 KJAN 271722
TAFGLH
TAF
KGLH 271722Z 2718/2818 33007KT P6SM SCT012 BKN020 OVC028
     FM272100 34010KT P6SM SCT030 BKN050
     FM280000 36005KT P6SM SKC=



    US Dept of Commerce
    National Oceanic and Atmospheric Administration
    National Weather Service
    1325 East West Highway
    Silver Spring, MD 20910
    Page Author: NWS Internet Services Team
Disclaimer
Information Quality
Credits
Glossary
Privacy Policy
Freedom of Information Act (FOIA)
About Us
Career Opportunities